Time;durP1;ratioP1;P1;durP2;ratioP2;P2;SDS_P1;SDS_P2;PMS_P1;PMS_P2;Temp;Humidity;BMP_temperature;BMP_pressure;BME280_temperature;BME280_humidity;BME280_pressure;Samples;Min_cycle;Max_cycle;Signal;HPM_P1;HPM_P2
2023/10/09 00:01:12;;;;;;;16.02;3.60;;;;;;;16.70;56.29;93642.13;2022853;71;20652;-74
2023/10/09 00:03:52;;;;;;;17.20;3.97;;;;;;;16.82;55.47;93633.56;2022917;71;20522;-75
2023/10/09 00:06:37;;;;;;;17.17;3.42;;;;;;;16.67;56.79;93637.72;2019628;71;20775;-74
2023/10/09 00:11:44;;;;;;;20.98;3.58;;;;;;;16.65;56.16;93631.94;2022747;71;20169;-74
2023/10/09 00:14:12;;;;;;;19.30;3.50;;;;;;;16.62;56.69;93625.38;2022102;71;20248;-75
2023/10/09 00:17:22;;;;;;;19.35;3.58;;;;;;;16.62;56.20;93621.81;2022688;71;20165;-73
2023/10/09 00:19:32;;;;;;;20.65;3.58;;;;;;;16.60;56.57;93630.97;2021330;71;20275;-73
2023/10/09 00:22:04;;;;;;;16.60;3.13;;;;;;;16.72;54.96;93628.81;2022051;71;20168;-74
2023/10/09 00:24:33;;;;;;;15.60;3.85;;;;;;;16.69;55.44;93632.16;2022854;71;20142;-74
2023/10/09 00:27:12;;;;;;;19.95;3.63;;;;;;;16.67;56.38;93634.84;2022755;71;20537;-74
2023/10/09 00:29:45;;;;;;;19.65;3.97;;;;;;;16.43;56.70;93622.94;2022999;71;20239;-75
2023/10/09 00:32:16;;;;;;;16.48;3.55;;;;;;;16.51;56.30;93614.84;2022780;71;20145;-74
2023/10/09 00:34:42;;;;;;;15.25;3.47;;;;;;;16.44;56.55;93607.34;2022556;71;20157;-74
2023/10/09 00:37:23;;;;;;;16.50;3.40;;;;;;;16.47;55.97;93621.03;2022741;71;20169;-74
2023/10/09 00:39:56;;;;;;;19.45;3.95;;;;;;;16.46;56.69;93624.53;2022734;71;20633;-74
2023/10/09 00:42:35;;;;;;;16.15;3.33;;;;;;;16.36;56.89;93621.16;2022374;71;20222;-75
2023/10/09 00:45:04;;;;;;;18.58;3.67;;;;;;;16.33;57.14;93617.44;2023082;71;20220;-75
2023/10/09 00:47:35;;;;;;;17.55;3.90;;;;;;;16.30;56.56;93615.13;2025451;71;20142;-75
2023/10/09 00:50:09;;;;;;;18.88;3.42;;;;;;;16.38;56.74;93619.13;2019925;71;20690;-74
2023/10/09 00:52:50;;;;;;;18.77;4.32;;;;;;;16.17;57.08;93611.63;2022615;71;20145;-75
2023/10/09 00:58:12;;;;;;;12.77;3.00;;;;;;;16.18;57.93;93612.38;2022954;71;20134;-75
2023/10/09 01:06:03;;;;;;;15.10;3.70;;;;;;;16.23;57.50;93616.91;2022630;71;20695;-74
2023/10/09 01:11:10;;;;;;;19.00;4.03;;;;;;;16.21;58.11;93605.41;2019156;71;20150;-74
2023/10/09 01:16:24;;;;;;;14.45;3.05;;;;;;;16.21;57.41;93597.63;2019606;71;20183;-75
2023/10/09 01:18:57;;;;;;;17.38;3.53;;;;;;;16.29;56.64;93593.75;2019311;71;20157;-73
2023/10/09 01:21:31;;;;;;;20.90;3.88;;;;;;;16.14;57.55;93593.00;2019944;71;20153;-75
2023/10/09 01:24:03;;;;;;;18.10;3.65;;;;;;;16.26;58.22;93587.97;2019813;71;20231;-74
2023/10/09 01:26:44;;;;;;;17.13;2.88;;;;;;;16.08;58.22;93592.66;2019845;71;20237;-74
2023/10/09 01:29:20;;;;;;;15.75;3.22;;;;;;;16.12;57.32;93592.13;2016356;71;20243;-74
2023/10/09 01:31:55;;;;;;;16.15;3.55;;;;;;;16.05;57.88;93585.41;2018865;71;20138;-73
2023/10/09 01:34:24;;;;;;;17.42;3.15;;;;;;;16.05;57.39;93588.25;2019195;71;20138;-75
2023/10/09 01:36:55;;;;;;;16.45;3.20;;;;;;;16.26;55.88;93590.81;2020061;71;20138;-75
2023/10/09 01:39:27;;;;;;;18.83;3.88;;;;;;;16.32;55.90;93589.66;2019447;71;20157;-73
2023/10/09 01:41:59;;;;;;;16.58;3.90;;;;;;;15.96;57.67;93589.88;2021573;71;20193;-73
2023/10/09 01:44:26;;;;;;;;;;;;;;;15.98;57.90;93589.25;2019588;71;20241;-74
2023/10/09 01:46:55;;;;;;;21.40;3.95;;;;;;;16.11;56.93;93579.31;2018799;71;20050;-74
2023/10/09 01:49:29;;;;;;;17.98;3.60;;;;;;;16.12;57.31;93575.09;2019158;71;20161;-75
2023/10/09 01:51:58;;;;;;;13.52;3.35;;;;;;;16.19;56.36;93571.22;2018952;71;20138;-74
2023/10/09 01:55:13;;;;;;;15.20;3.58;;;;;;;16.29;55.72;93568.91;2018531;71;20599;-74
2023/10/09 01:57:12;;;;;;;20.33;4.03;;;;;;;16.21;56.38;93574.91;2017937;71;20157;-74
2023/10/09 01:59:49;;;;;;;17.30;3.92;;;;;;;15.91;58.78;93573.25;2018671;71;20634;-74
2023/10/09 02:02:33;;;;;;;21.35;3.85;;;;;;;15.97;58.05;93573.59;2018771;71;20176;-74
2023/10/09 02:07:52;;;;;;;19.98;3.38;;;;;;;15.85;57.71;93581.44;2019338;71;20239;-74
2023/10/09 02:13:06;;;;;;;19.60;3.42;;;;;;;16.08;56.68;93563.50;2019651;71;20142;-75
2023/10/09 02:21:04;;;;;;;15.77;3.03;;;;;;;15.94;57.59;93569.16;2019763;71;20192;-75
2023/10/09 02:23:56;;;;;;;18.48;4.07;;;;;;;15.83;57.36;93572.81;2019153;71;20591;-75
2023/10/09 02:26:26;;;;;;;16.58;3.30;;;;;;;15.83;56.29;93558.63;2019162;71;20163;-76
2023/10/09 02:29:38;;;;;;;12.15;3.38;;;;;;;15.93;56.06;93565.59;2019595;71;20150;-75
2023/10/09 02:31:51;;;;;;;18.17;3.38;;;;;;;15.92;57.60;93564.09;2018559;71;20173;-75
2023/10/09 02:34:24;;;;;;;20.13;3.50;;;;;;;15.90;58.08;93563.28;2019198;71;20165;-75
2023/10/09 02:36:57;;;;;;;17.05;3.10;;;;;;;15.77;58.68;93558.28;2019376;71;20169;-76
2023/10/09 02:39:26;;;;;;;13.48;3.03;;;;;;;15.77;58.59;93561.88;2019929;71;20237;-75
2023/10/09 02:41:58;;;;;;;14.93;3.25;;;;;;;15.45;59.26;93561.50;2018880;71;20153;-75
2023/10/09 02:44:27;;;;;;;22.73;3.97;;;;;;;15.46;59.16;93565.81;2018814;71;20223;-75
2023/10/09 02:46:57;;;;;;;17.20;4.03;;;;;;;15.39;59.24;93563.22;2019527;71;20141;-75
2023/10/09 02:49:24;;;;;;;13.70;3.60;;;;;;;15.51;58.88;93547.63;2019603;71;20149;-75
2023/10/09 02:51:53;;;;;;;16.92;3.92;;;;;;;15.54;58.69;93562.69;2019237;71;20152;-75
2023/10/09 02:57:05;;;;;;;21.85;3.35;;;;;;;15.48;57.69;93548.88;2019624;71;20141;-75
2023/10/09 02:59:32;;;;;;;19.30;3.40;;;;;;;15.61;58.58;93544.63;2019024;71;20157;-75
2023/10/09 03:01:59;;;;;;;18.63;3.38;;;;;;;15.65;58.33;93544.16;2019012;71;20162;-75
2023/10/09 03:04:31;;;;;;;17.67;2.95;;;;;;;15.54;58.80;93544.94;2019157;71;20157;-75
2023/10/09 03:06:58;;;;;;;19.60;3.47;;;;;;;15.57;58.53;93549.34;2019035;71;20204;-75
2023/10/09 03:09:27;;;;;;;18.80;3.17;;;;;;;15.59;57.53;93543.78;2019319;71;20219;-75
2023/10/09 03:12:01;;;;;;;17.05;3.72;;;;;;;15.45;58.58;93547.31;2018900;71;20150;-75
2023/10/09 03:14:38;;;;;;;17.75;3.15;;;;;;;15.61;56.92;93549.56;2019715;71;20170;-75
2023/10/09 03:17:07;;;;;;;18.55;3.30;;;;;;;15.49;57.23;93544.69;2019105;71;22019;-75
2023/10/09 03:19:38;;;;;;;17.13;3.60;;;;;;;15.58;56.87;93534.53;2019389;71;20241;-74
2023/10/09 03:22:09;;;;;;;23.30;3.80;;;;;;;15.66;57.58;93545.63;2018997;71;20225;-74
2023/10/09 03:24:44;;;;;;;24.67;3.67;;;;;;;15.61;57.30;93549.56;2019603;71;20162;-75
2023/10/09 03:27:11;;;;;;;20.42;3.75;;;;;;;15.60;56.94;93543.16;2019574;71;20179;-74
2023/10/09 03:29:37;;;;;;;18.73;3.38;;;;;;;15.65;57.72;93539.22;2019622;71;20634;-75
2023/10/09 03:32:03;;;;;;;19.80;4.10;;;;;;;15.66;56.45;93549.19;2019536;71;20154;-75
2023/10/09 03:34:30;;;;;;;15.52;3.33;;;;;;;15.58;56.21;93536.63;2019316;71;20181;-75
2023/10/09 03:37:39;;;;;;;19.98;3.65;;;;;;;15.63;56.80;93535.50;2019684;71;20630;-75
2023/10/09 03:39:47;;;;;;;17.98;3.83;;;;;;;15.47;57.19;93533.22;2017977;71;20161;-75
2023/10/09 03:42:19;;;;;;;17.52;3.95;;;;;;;15.24;57.97;93536.16;2018624;71;20145;-75
2023/10/09 03:44:52;;;;;;;18.13;4.15;;;;;;;15.42;57.77;93534.34;2019393;71;20165;-75
2023/10/09 03:47:22;;;;;;;;;;;;;;;15.38;58.68;93534.13;2019712;71;20145;-75
2023/10/09 03:49:54;;;;;;;18.30;3.63;;;;;;;15.27;58.31;93526.41;2019612;71;20070;-75
2023/10/09 03:52:20;;;;;;;19.67;3.70;;;;;;;15.38;56.39;93528.47;2019364;71;20178;-75
2023/10/09 03:54:47;;;;;;;23.25;3.47;;;;;;;15.43;57.63;93529.41;2019333;71;20214;-75
2023/10/09 03:57:19;;;;;;;17.60;3.75;;;;;;;15.45;56.86;93530.28;2019297;71;20156;-75
2023/10/09 03:59:48;;;;;;;19.13;3.50;;;;;;;15.45;55.95;93509.69;2019417;71;20206;-75
2023/10/09 04:02:16;;;;;;;25.58;4.00;;;;;;;15.46;55.89;93526.06;2019338;71;20268;-75
2023/10/09 04:04:46;;;;;;;15.38;3.13;;;;;;;15.37;57.39;93521.31;2019191;71;20598;-75
2023/10/09 04:07:16;;;;;;;17.83;3.53;;;;;;;15.45;55.69;93518.94;2019134;71;20150;-75
2023/10/09 04:09:44;;;;;;;18.45;3.55;;;;;;;15.51;55.97;93529.88;2019771;71;20150;-75
2023/10/09 04:15:01;;;;;;;17.70;3.97;;;;;;;15.11;57.67;93511.31;2020140;71;20210;-74
2023/10/09 04:17:33;;;;;;;16.08;3.38;;;;;;;15.21;57.00;93511.88;2020238;71;20275;-74
2023/10/09 04:23:05;;;;;;;18.13;3.90;;;;;;;15.15;58.02;93511.53;2015941;71;20153;-74
2023/10/09 04:25:41;;;;;;;19.50;3.75;;;;;;;15.25;56.39;93509.28;2019387;71;20169;-74
2023/10/09 04:28:09;;;;;;;20.27;3.22;;;;;;;15.27;56.18;93517.19;2020170;71;20311;-74
2023/10/09 04:30:55;;;;;;;19.48;4.47;;;;;;;15.16;57.17;93505.25;2019680;71;20154;-74
2023/10/09 04:38:52;;;;;;;20.30;3.60;;;;;;;15.12;57.81;93510.69;2020209;71;20172;-76
2023/10/09 04:41:27;;;;;;;16.75;3.42;;;;;;;15.11;56.93;93508.47;2020242;71;20346;-75
2023/10/09 04:44:59;;;;;;;18.85;3.80;;;;;;;15.10;57.56;93504.16;2017256;71;20229;-75
2023/10/09 04:46:58;;;;;;;28.17;3.92;;;;;;;15.04;57.60;93504.56;2018646;71;20196;-75
2023/10/09 04:49:27;;;;;;;14.88;3.58;;;;;;;14.95;58.85;93508.28;2019895;71;20164;-76
2023/10/09 04:52:09;;;;;;;16.45;3.88;;;;;;;14.74;59.56;93506.38;2019767;71;20160;-75
2023/10/09 04:55:02;;;;;;;17.88;3.47;;;;;;;14.94;57.89;93492.66;2019882;71;20237;-75
2023/10/09 04:57:26;;;;;;;14.77;3.60;;;;;;;14.95;57.90;93494.84;2019668;71;20229;-75
2023/10/09 04:59:58;;;;;;;19.08;3.75;;;;;;;14.74;58.90;93500.69;2019960;71;20168;-75
2023/10/09 05:02:36;;;;;;;16.77;3.97;;;;;;;14.86;58.47;93495.75;2020029;71;20219;-75
2023/10/09 05:05:47;;;;;;;18.17;4.35;;;;;;;14.83;58.46;93499.81;2019962;71;20184;-75
2023/10/09 05:08:19;;;;;;;16.52;3.38;;;;;;;14.52;60.03;93500.13;2019732;71;20580;-75
2023/10/09 05:13:42;;;;;;;21.60;3.83;;;;;;;14.23;61.10;93504.09;2019433;71;20149;-75
2023/10/09 05:16:18;;;;;;;16.17;3.95;;;;;;;14.54;60.39;93508.75;2019927;71;20600;-75
2023/10/09 05:19:28;;;;;;;25.15;4.18;;;;;;;14.61;60.40;93504.91;2019219;71;20182;-74
2023/10/09 05:21:58;;;;;;;25.77;3.75;;;;;;;14.57;60.98;93493.38;2019743;71;20148;-75
2023/10/09 05:24:26;;;;;;;17.83;3.22;;;;;;;14.66;59.57;93486.06;2016766;71;20153;-76
2023/10/09 05:26:52;;;;;;;18.90;3.10;;;;;;;14.54;60.25;93496.69;2019638;71;20154;-75
2023/10/09 05:37:43;;;;;;;19.02;3.60;;;;;;;14.60;58.97;93492.09;2019702;71;20185;-76
2023/10/09 05:42:45;;;;;;;16.45;3.17;;;;;;;14.87;58.27;93505.00;2019659;71;20157;-75
2023/10/09 05:48:33;;;;;;;;;;;;;;;14.94;58.80;93496.22;2019678;71;20176;-75
2023/10/09 06:03:53;;;;;;;19.52;4.35;;;;;;;15.32;57.79;93499.75;2019517;71;20612;-75
2023/10/09 06:06:44;;;;;;;18.23;3.58;;;;;;;15.49;59.02;93504.25;2019629;71;20653;-75
2023/10/09 06:11:49;;;;;;;30.63;3.97;;;;;;;15.63;57.73;93505.03;2019636;71;20173;-75
2023/10/09 06:14:25;;;;;;;20.30;4.95;;;;;;;15.58;57.76;93505.41;2019101;71;20215;-75
2023/10/09 06:17:15;;;;;;;17.27;3.53;;;;;;;15.60;57.24;93508.38;2019599;71;20149;-74
2023/10/09 06:19:43;;;;;;;14.95;3.53;;;;;;;15.85;57.36;93499.84;2019150;71;20186;-75
2023/10/09 06:22:56;;;;;;;20.63;3.83;;;;;;;15.85;54.91;93505.53;2019022;71;20166;-75
2023/10/09 06:24:57;;;;;;;14.75;3.65;;;;;;;15.93;55.37;93510.88;2019632;71;20158;-75
2023/10/09 06:32:57;;;;;;;25.10;3.63;;;;;;;16.12;58.07;93495.56;2019888;71;20185;-76
2023/10/09 06:35:32;;;;;;;20.38;4.00;;;;;;;16.12;56.46;93495.56;2019574;71;20134;-75
2023/10/09 06:43:17;;;;;;;21.38;4.80;;;;;;;16.27;57.14;93504.22;2019520;71;20138;-75
2023/10/09 06:45:54;;;;;;;15.80;4.43;;;;;;;15.79;59.53;93499.50;2019533;71;20607;-75
2023/10/09 06:58:54;;;;;;;;;;;;;;;16.22;58.16;93511.06;2019439;71;20146;-77
2023/10/09 07:03:53;;;;;;;17.00;3.78;;;;;;;16.24;55.53;93501.88;2019536;71;20160;-75
2023/10/09 07:06:23;;;;;;;18.30;3.67;;;;;;;16.22;57.46;93505.38;2019406;71;20202;-75
2023/10/09 07:09:42;;;;;;;16.13;3.47;;;;;;;16.21;58.63;93505.97;2019356;71;20150;-75
2023/10/09 07:17:15;;;;;;;;;;;;;;;16.13;59.71;93512.00;2019677;71;20215;-75
2023/10/09 07:22:18;;;;;;;15.85;3.72;;;;;;;16.05;60.01;93491.66;2019449;71;20162;-75
2023/10/09 07:24:43;;;;;;;19.13;4.53;;;;;;;16.02;59.24;93496.50;2019285;71;20216;-75
2023/10/09 07:27:14;;;;;;;28.63;5.22;;;;;;;15.80;60.42;93500.25;2019344;71;20169;-75
2023/10/09 07:29:49;;;;;;;25.15;4.85;;;;;;;16.04;60.41;93498.72;2019584;71;20236;-75
2023/10/09 07:32:21;;;;;;;18.83;5.07;;;;;;;16.08;60.71;93504.63;2019510;71;20174;-75
2023/10/09 07:34:54;;;;;;;21.58;5.25;;;;;;;16.15;60.65;93506.41;2019641;71;20152;-74
2023/10/09 07:37:23;;;;;;;27.35;4.32;;;;;;;16.19;60.58;93498.09;2019565;71;20180;-75
2023/10/09 07:39:58;;;;;;;20.10;4.72;;;;;;;16.25;61.16;93506.94;2019398;71;20165;-75
2023/10/09 07:43:27;;;;;;;17.02;4.10;;;;;;;16.14;62.12;93496.41;2019338;71;20138;-75
2023/10/09 07:48:14;;;;;;;15.30;3.47;;;;;;;16.24;61.19;93499.06;2018795;71;20568;-75
2023/10/09 07:50:40;;;;;;;17.38;4.45;;;;;;;15.94;61.19;93501.75;2019230;71;20237;-75
2023/10/09 07:53:25;;;;;;;21.75;4.78;;;;;;;16.21;61.18;93497.47;2018760;71;20146;-78
2023/10/09 07:55:55;;;;;;;17.25;5.10;;;;;;;16.30;60.54;93492.94;2019316;71;20142;-75
2023/10/09 07:58:25;;;;;;;20.70;4.13;;;;;;;16.41;60.89;93481.50;2019124;71;20154;-77
2023/10/09 08:01:16;;;;;;;20.60;4.95;;;;;;;16.29;60.98;93491.47;2019282;71;20154;-77
2023/10/09 08:03:45;;;;;;;19.08;4.82;;;;;;;16.11;61.40;93488.41;2019081;71;20177;-76
2023/10/09 08:14:59;;;;;;;20.17;4.50;;;;;;;16.74;60.97;93483.16;2019361;71;20177;-74
2023/10/09 08:20:11;;;;;;;23.67;5.32;;;;;;;16.78;61.28;93477.69;2019463;71;20175;-75
2023/10/09 08:22:43;;;;;;;17.60;3.63;;;;;;;17.17;59.46;93473.88;2019242;71;20219;-76
2023/10/09 08:25:26;;;;;;;20.95;3.80;;;;;;;17.79;58.84;93484.00;2018910;71;20205;-75
2023/10/09 08:28:39;;;;;;;19.97;4.03;;;;;;;18.18;56.66;93480.03;2019397;71;20230;-75
2023/10/09 08:30:49;;;;;;;30.13;3.95;;;;;;;18.82;54.54;93475.72;2019439;71;20268;-75
2023/10/09 08:36:07;;;;;;;21.38;4.15;;;;;;;19.75;49.34;93461.72;2019233;71;20267;-76
2023/10/09 08:38:34;;;;;;;21.52;4.38;;;;;;;19.82;48.62;93470.50;2018833;71;20146;-76
2023/10/09 08:41:15;;;;;;;20.17;3.97;;;;;;;20.19;47.95;93461.91;2019271;71;20562;-76
2023/10/09 08:43:47;;;;;;;18.05;3.85;;;;;;;20.78;45.87;93469.78;2019362;71;20152;-76
2023/10/09 08:46:18;;;;;;;24.30;4.17;;;;;;;21.00;45.65;93460.53;2019565;71;20696;-76
2023/10/09 08:48:45;;;;;;;19.38;4.65;;;;;;;21.21;45.96;93459.81;2019483;71;20234;-76
2023/10/09 08:51:11;;;;;;;24.60;4.35;;;;;;;21.74;44.83;93463.66;2018868;71;20648;-75
2023/10/09 08:53:42;;;;;;;31.52;5.18;;;;;;;22.36;43.38;93451.91;2019675;71;20245;-75
2023/10/09 08:56:22;;;;;;;21.45;4.22;;;;;;;22.26;42.60;93455.94;2019537;71;20522;-74
2023/10/09 08:59:01;;;;;;;26.58;4.45;;;;;;;22.61;42.67;93445.47;2019429;71;20225;-75
2023/10/09 09:01:31;;;;;;;16.92;3.55;;;;;;;23.68;40.86;93451.84;2019908;71;20169;-73
2023/10/09 09:03:57;;;;;;;28.45;4.22;;;;;;;23.97;39.33;93456.13;2019760;71;20176;-74
2023/10/09 09:06:23;;;;;;;26.52;4.43;;;;;;;24.33;40.98;93453.31;2019864;71;20518;-74
2023/10/09 09:08:59;;;;;;;20.58;4.32;;;;;;;24.47;40.40;93456.53;2020148;71;20142;-75
2023/10/09 09:11:25;;;;;;;26.95;4.45;;;;;;;24.52;38.84;93448.69;2020152;70;20194;-75
2023/10/09 09:13:53;;;;;;;23.38;4.78;;;;;;;24.61;38.65;93449.59;2019891;71;20153;-76
2023/10/09 09:16:22;;;;;;;24.23;4.30;;;;;;;25.04;37.52;93448.25;2019656;71;20254;-76
2023/10/09 09:19:13;;;;;;;25.00;4.07;;;;;;;25.47;38.61;93454.81;2020061;71;20598;-76
2023/10/09 09:21:45;;;;;;;22.63;4.22;;;;;;;25.27;38.44;93438.63;2020139;71;20158;-77
2023/10/09 09:26:58;;;;;;;21.35;3.72;;;;;;;26.46;36.39;93429.66;2019509;71;20584;-77
2023/10/09 09:29:52;;;;;;;19.13;4.55;;;;;;;26.67;36.57;93422.00;2020048;71;20180;-76
2023/10/09 09:32:35;;;;;;;23.63;4.38;;;;;;;26.96;35.55;93425.19;2020034;71;20607;-76
2023/10/09 09:35:02;;;;;;;19.02;4.28;;;;;;;28.06;36.63;93421.13;2019525;71;20192;-76
2023/10/09 09:40:27;;;;;;;23.55;3.95;;;;;;;28.39;34.81;93427.16;2019728;71;20142;-77
2023/10/09 09:42:57;;;;;;;18.45;3.95;;;;;;;29.45;32.88;93426.78;2019178;71;20150;-77
2023/10/09 09:45:24;;;;;;;25.13;4.35;;;;;;;29.44;31.51;93428.25;2019423;71;20223;-77
2023/10/09 09:47:52;;;;;;;21.30;3.85;;;;;;;29.54;33.74;93431.88;2019968;71;20227;-77
2023/10/09 09:50:26;;;;;;;21.02;4.28;;;;;;;30.38;31.99;93418.09;2019364;71;20179;-75
2023/10/09 09:52:55;;;;;;;15.63;3.88;;;;;;;30.77;33.67;93429.63;2019880;71;20150;-75
2023/10/09 09:55:34;;;;;;;26.35;4.07;;;;;;;31.41;32.10;93427.13;2019552;71;20299;-77
2023/10/09 09:58:06;;;;;;;23.98;4.90;;;;;;;31.12;31.46;93426.56;2019538;71;20138;-77
2023/10/09 10:00:42;;;;;;;25.45;4.18;;;;;;;31.37;32.02;93422.06;2019969;71;20176;-77
2023/10/09 10:03:16;;;;;;;19.92;4.30;;;;;;;31.68;30.43;93413.13;2019918;71;20154;-77
2023/10/09 10:05:46;;;;;;;24.02;4.10;;;;;;;32.18;30.92;93413.47;2019865;71;20154;-77
2023/10/09 10:08:19;;;;;;;26.27;3.40;;;;;;;32.18;31.52;93410.56;2019445;71;20558;-78
2023/10/09 10:10:57;;;;;;;20.40;3.80;;;;;;;32.69;29.90;93412.97;2019742;71;20149;-78
2023/10/09 10:13:40;;;;;;;20.65;4.18;;;;;;;32.54;30.92;93412.41;2019819;71;20149;-77
2023/10/09 10:16:19;;;;;;;17.65;3.95;;;;;;;33.43;30.03;93409.84;2019968;71;20595;-78
2023/10/09 10:18:59;;;;;;;22.95;3.92;;;;;;;32.93;30.97;93403.22;2019864;71;20244;-78
2023/10/09 10:24:10;;;;;;;23.85;3.42;;;;;;;33.16;31.51;93409.47;2019544;71;20142;-78
2023/10/09 10:26:36;;;;;;;21.30;4.22;;;;;;;31.90;30.73;93397.69;2019137;71;20674;-78
2023/10/09 10:29:26;;;;;;;19.58;4.00;;;;;;;33.83;29.68;93382.25;2016340;71;20137;-76
2023/10/09 10:31:55;;;;;;;22.55;4.00;;;;;;;34.27;28.38;93395.41;2019469;71;20534;-77
2023/10/09 10:34:25;;;;;;;24.15;4.38;;;;;;;33.29;29.31;93382.31;2019357;71;20142;-77
2023/10/09 10:37:01;;;;;;;19.98;3.90;;;;;;;33.15;31.20;93382.50;2019667;71;20142;-77
2023/10/09 10:39:45;;;;;;;18.33;4.20;;;;;;;33.51;30.35;93366.69;2018982;71;20671;-76
2023/10/09 10:42:33;;;;;;;20.90;4.00;;;;;;;33.42;30.26;93382.84;2019369;71;20274;-76
2023/10/09 10:45:15;;;;;;;22.25;3.88;;;;;;;33.66;30.89;93372.31;2019522;71;20150;-77
2023/10/09 10:47:42;;;;;;;20.87;3.73;;;;;;;33.63;31.02;93369.44;2019774;71;20145;-76
2023/10/09 10:50:34;;;;;;;24.50;4.38;;;;;;;32.98;30.93;93372.53;2019915;71;20157;-77
2023/10/09 10:53:02;;;;;;;22.77;4.15;;;;;;;32.35;32.06;93365.25;2020105;71;20225;-77
2023/10/09 10:58:00;;;;;;;25.40;4.38;;;;;;;30.42;35.75;93358.53;2019812;71;20228;-75
2023/10/09 11:03:35;;;;;;;22.15;4.65;;;;;;;30.76;36.65;93351.88;2018148;71;20142;-76
2023/10/09 11:06:13;;;;;;;25.98;4.10;;;;;;;29.94;37.21;93346.31;2016830;71;20158;-77
2023/10/09 11:08:56;;;;;;;22.45;4.60;;;;;;;30.59;37.46;93343.22;2019604;71;20237;-77
2023/10/09 11:11:30;;;;;;;22.98;4.40;;;;;;;30.76;38.12;93343.16;2019563;71;20630;-77
2023/10/09 11:14:14;;;;;;;18.20;3.67;;;;;;;30.78;39.44;93343.88;2019549;71;20182;-77
2023/10/09 11:16:43;;;;;;;18.30;4.10;;;;;;;29.42;38.81;93336.19;2019659;71;20162;-77
2023/10/09 11:19:22;;;;;;;24.55;3.90;;;;;;;30.47;37.17;93337.47;2019581;71;20169;-77
2023/10/09 11:21:58;;;;;;;22.35;4.65;;;;;;;31.19;38.49;93329.09;2018931;71;20164;-78
2023/10/09 11:24:34;;;;;;;30.23;4.38;;;;;;;31.29;38.45;93326.13;2018915;71;20165;-76
2023/10/09 11:27:05;;;;;;;22.02;4.20;;;;;;;29.76;39.52;93323.84;2019427;71;20202;-79
2023/10/09 11:32:18;;;;;;;24.00;3.92;;;;;;;32.38;36.38;93320.78;2019561;71;20181;-79
2023/10/09 11:35:08;;;;;;;24.17;4.20;;;;;;;32.02;35.31;93321.88;2019402;71;20174;-77
2023/10/09 11:37:42;;;;;;;23.33;4.35;;;;;;;31.06;37.67;93319.00;2019416;71;20165;-76
2023/10/09 11:40:33;;;;;;;27.05;4.63;;;;;;;31.59;37.56;93315.72;2018838;71;20157;-76
2023/10/09 11:43:03;;;;;;;26.00;4.40;;;;;;;31.75;34.37;93306.09;2019456;71;20141;-76
2023/10/09 11:45:29;;;;;;;19.35;3.70;;;;;;;31.08;36.75;93301.56;2019381;71;20624;-76
2023/10/09 11:47:57;;;;;;;16.58;3.90;;;;;;;32.65;35.02;93297.13;2019480;71;20279;-76
2023/10/09 11:50:50;;;;;;;23.65;3.75;;;;;;;32.73;34.62;93297.03;2019355;71;20146;-79
2023/10/09 11:55:52;;;;;;;22.60;3.95;;;;;;;32.03;33.16;93296.41;2019505;71;20149;-80
2023/10/09 11:58:24;;;;;;;22.00;3.97;;;;;;;33.33;33.31;93296.91;2019223;71;20141;-81
2023/10/09 12:00:58;;;;;;;20.60;4.07;;;;;;;32.71;35.20;93288.31;2018755;71;20165;-79
2023/10/09 12:03:29;;;;;;;26.08;4.10;;;;;;;35.30;32.60;93309.97;2019206;71;20522;-80
2023/10/09 12:05:57;;;;;;;24.35;4.15;;;;;;;36.82;30.90;93306.81;2018458;71;20184;-80
2023/10/09 12:08:26;;;;;;;26.08;3.92;;;;;;;38.66;27.44;93301.56;2018381;71;20248;-80
2023/10/09 12:10:54;;;;;;;22.80;3.60;;;;;;;37.78;28.36;93300.94;2018994;71;20696;-80
2023/10/09 12:13:23;;;;;;;22.33;4.38;;;;;;;38.93;26.02;93292.50;2019144;71;20244;-80
2023/10/09 12:15:53;;;;;;;21.20;3.97;;;;;;;36.18;27.71;93298.31;2019145;71;20162;-79
2023/10/09 12:18:23;;;;;;;21.95;3.97;;;;;;;33.87;31.91;93285.81;2019188;71;20165;-80
2023/10/09 12:20:50;;;;;;;21.60;4.05;;;;;;;41.84;23.38;93293.31;2019383;71;20181;-79
2023/10/09 12:23:21;;;;;;;27.30;4.45;;;;;;;38.49;26.54;93291.91;2019229;71;20169;-79
2023/10/09 12:25:49;;;;;;;21.27;3.72;;;;;;;41.45;24.85;93291.47;2019586;71;20158;-80
2023/10/09 12:28:15;;;;;;;21.95;4.10;;;;;;;45.04;19.52;93283.78;2018717;71;20166;-80
2023/10/09 12:30:41;;;;;;;18.95;4.30;;;;;;;44.34;20.49;93290.91;2019361;71;20267;-79
2023/10/09 12:33:08;;;;;;;16.80;4.18;;;;;;;37.88;24.46;93271.94;2019302;71;20157;-78
2023/10/09 12:35:38;;;;;;;18.65;4.20;;;;;;;39.47;23.84;93273.53;2019246;71;20181;-78
2023/10/09 12:38:09;;;;;;;20.65;4.43;;;;;;;43.13;23.15;93279.22;2019782;71;20145;-78
2023/10/09 12:40:35;;;;;;;21.48;4.00;;;;;;;44.94;20.13;93285.09;2019832;71;20540;-78
2023/10/09 12:43:01;;;;;;;22.00;3.90;;;;;;;42.24;22.55;93275.75;2019593;71;20585;-80
2023/10/09 12:45:27;;;;;;;24.50;3.70;;;;;;;38.02;27.55;93267.09;2019568;71;20165;-78
2023/10/09 12:47:59;;;;;;;19.90;4.05;;;;;;;37.98;27.85;93267.22;2019600;71;20145;-78
2023/10/09 12:50:29;;;;;;;23.13;3.92;;;;;;;35.84;29.13;93277.94;2019809;71;20244;-78
2023/10/09 12:53:01;;;;;;;21.33;4.13;;;;;;;39.64;25.25;93277.97;2019741;71;20146;-78
2023/10/09 12:55:31;;;;;;;23.77;4.20;;;;;;;37.36;27.09;93272.16;2019729;71;20145;-80
2023/10/09 12:58:00;;;;;;;23.02;3.95;;;;;;;39.04;24.34;93266.34;2019627;71;20150;-80
2023/10/09 13:00:27;;;;;;;20.27;3.65;;;;;;;36.30;27.05;93254.75;2019693;71;20215;-79
2023/10/09 13:02:53;;;;;;;20.75;4.10;;;;;;;39.04;23.78;93257.50;2019718;71;20604;-80
2023/10/09 13:05:26;;;;;;;26.90;3.97;;;;;;;39.47;22.85;93262.44;2019703;71;20309;-78
2023/10/09 13:07:56;;;;;;;24.35;4.40;;;;;;;35.12;27.13;93260.66;2020161;71;20157;-79
2023/10/09 13:10:24;;;;;;;23.50;3.58;;;;;;;35.94;26.71;93244.72;2019118;71;20150;-78
2023/10/09 13:12:55;;;;;;;19.88;4.47;;;;;;;37.11;27.27;93242.13;2019054;71;20210;-78
2023/10/09 13:15:21;;;;;;;21.42;4.22;;;;;;;35.67;30.52;93230.06;2019889;71;20205;-78
2023/10/09 13:17:47;;;;;;;24.25;4.00;;;;;;;34.58;32.44;93243.53;2019664;71;20165;-79
2023/10/09 13:20:14;;;;;;;17.83;3.75;;;;;;;33.48;33.62;93239.06;2019669;71;20146;-79
2023/10/09 13:22:41;;;;;;;30.40;4.65;;;;;;;33.30;32.90;93240.78;2019853;71;20253;-80
2023/10/09 13:25:15;;;;;;;17.60;3.75;;;;;;;32.29;35.31;93248.78;2019389;71;20210;-79
2023/10/09 13:27:50;;;;;;;19.52;3.80;;;;;;;31.90;36.02;93234.69;2019693;71;20637;-79
2023/10/09 13:30:21;;;;;;;19.35;4.47;;;;;;;31.58;36.52;93241.53;2020047;71;20518;-78
2023/10/09 13:32:50;;;;;;;19.47;3.47;;;;;;;30.83;37.52;93237.03;2019608;71;20695;-79
2023/10/09 13:35:19;;;;;;;20.67;3.88;;;;;;;30.66;36.58;93232.78;2019962;71;20146;-79
2023/10/09 13:37:53;;;;;;;26.05;4.00;;;;;;;30.21;37.97;93227.94;2019756;71;20141;-80
2023/10/09 13:40:28;;;;;;;22.02;3.78;;;;;;;29.86;38.63;93244.75;2019678;71;20177;-80
2023/10/09 13:42:58;;;;;;;18.75;3.50;;;;;;;30.18;38.99;93255.53;2019516;71;20180;-78
2023/10/09 13:45:27;;;;;;;27.08;4.53;;;;;;;30.31;36.57;93230.06;2019541;71;20610;-80
2023/10/09 13:47:56;;;;;;;25.15;3.90;;;;;;;29.58;35.65;93228.13;2019487;71;20219;-80
2023/10/09 13:50:31;;;;;;;25.92;3.78;;;;;;;29.67;36.68;93231.75;2019441;71;20145;-80
2023/10/09 13:52:59;;;;;;;25.00;3.75;;;;;;;29.52;33.65;93237.56;2019569;71;20177;-79
2023/10/09 13:55:33;;;;;;;27.15;4.60;;;;;;;29.61;33.56;93233.22;2019521;71;20242;-79
2023/10/09 13:58:00;;;;;;;23.70;3.58;;;;;;;29.05;35.36;93226.03;2019314;71;20165;-80
2023/10/09 14:00:41;;;;;;;25.55;3.70;;;;;;;28.63;36.40;93230.28;2019304;71;20148;-78
2023/10/09 14:03:19;;;;;;;31.48;3.90;;;;;;;28.56;31.18;93202.78;2019462;71;20146;-78
2023/10/09 14:05:54;;;;;;;31.23;4.47;;;;;;;27.92;29.84;93224.31;2019543;71;20242;-78
2023/10/09 14:08:23;;;;;;;24.92;3.85;;;;;;;28.24;33.56;93225.88;2019544;71;20668;-78
2023/10/09 14:10:49;;;;;;;31.80;4.45;;;;;;;28.00;32.00;93224.34;2019585;71;20253;-78
2023/10/09 14:13:19;;;;;;;18.92;4.15;;;;;;;28.09;34.92;93222.19;2016619;71;20195;-79
2023/10/09 14:15:48;;;;;;;;;;;;;;;28.42;34.14;93231.72;2019800;71;20146;-79